Time;durP1;ratioP1;P1;durP2;ratioP2;P2;SDS_P1;SDS_P2;PMS_P1;PMS_P2;Temp;Humidity;BMP_temperature;BMP_pressure;BME280_temperature;BME280_humidity;BME280_pressure;Samples;Min_cycle;Max_cycle;Signal;HPM_P1;HPM_P2
2022/03/09 00:00:04;;;;;;;4.38;3.65;;;2.20;91.60;;;;;;5015610;28;20241;-76
2022/03/09 00:02:30;;;;;;;6.90;4.18;;;2.20;91.40;;;;;;5017037;28;20049;-76
2022/03/09 00:04:55;;;;;;;5.10;4.00;;;2.20;91.60;;;;;;5016360;28;20390;-78
2022/03/09 00:07:21;;;;;;;4.85;3.70;;;2.10;91.90;;;;;;5014984;28;20049;-78
2022/03/09 00:09:47;;;;;;;6.25;4.10;;;2.10;92.20;;;;;;5014416;28;20398;-78
2022/03/09 00:12:12;;;;;;;5.35;4.00;;;2.10;92.20;;;;;;5016181;28;20046;-78
2022/03/09 00:14:38;;;;;;;5.30;4.00;;;2.10;92.30;;;;;;5014580;28;20057;-78
2022/03/09 00:17:04;;;;;;;5.38;4.40;;;2.00;92.50;;;;;;5015432;28;20046;-77
2022/03/09 00:19:29;;;;;;;5.63;4.30;;;2.00;92.60;;;;;;5017638;28;20041;-78
2022/03/09 00:21:55;;;;;;;5.65;4.30;;;1.90;92.80;;;;;;5001216;28;20057;-78
2022/03/09 00:24:20;;;;;;;6.05;4.40;;;1.80;93.00;;;;;;5035603;28;20041;-78
2022/03/09 00:26:47;;;;;;;5.00;4.28;;;1.90;93.10;;;;;;5017678;28;20540;-78
2022/03/09 00:29:12;;;;;;;6.22;4.32;;;1.80;93.50;;;;;;5018046;28;20045;-77
2022/03/09 00:31:38;;;;;;;6.13;4.22;;;1.80;93.80;;;;;;5035433;28;20452;-78
2022/03/09 00:34:04;;;;;;;6.13;4.45;;;1.80;94.00;;;;;;5034886;28;20500;-78
2022/03/09 00:36:29;;;;;;;7.47;4.40;;;1.70;94.20;;;;;;5035353;28;20147;-78
2022/03/09 00:38:56;;;;;;;5.78;4.68;;;1.70;94.20;;;;;;5035285;28;20049;-78
2022/03/09 00:41:22;;;;;;;5.75;4.68;;;1.70;94.30;;;;;;5035179;28;20053;-77
2022/03/09 00:43:48;;;;;;;7.68;4.80;;;1.70;94.50;;;;;;5017398;28;20147;-78
2022/03/09 00:46:13;;;;;;;6.15;4.72;;;1.70;94.50;;;;;;5035375;28;20248;-77
2022/03/09 00:48:39;;;;;;;5.38;4.50;;;1.60;94.40;;;;;;5035058;28;20073;-77
2022/03/09 00:51:06;;;;;;;5.40;4.50;;;1.80;94.60;;;;;;5000629;28;20053;-78
2022/03/09 00:53:31;;;;;;;6.72;4.90;;;1.60;94.80;;;;;;5034929;28;20045;-78
2022/03/09 00:55:57;;;;;;;7.35;4.70;;;1.50;94.80;;;;;;5034564;28;20103;-78
2022/03/09 00:58:23;;;;;;;6.75;4.85;;;1.60;94.90;;;;;;5034823;28;20045;-78
2022/03/09 01:00:48;;;;;;;5.47;4.40;;;1.50;95.20;;;;;;5034727;28;20057;-79
2022/03/09 01:03:15;;;;;;;6.03;4.70;;;1.50;95.40;;;;;;5034975;28;20037;-78
2022/03/09 01:05:40;;;;;;;6.00;4.68;;;1.40;95.50;;;;;;5033725;28;20046;-78
2022/03/09 01:08:06;;;;;;;7.55;4.85;;;1.40;95.50;;;;;;5034261;28;20099;-77
2022/03/09 01:10:32;;;;;;;6.13;4.88;;;1.50;95.50;;;;;;5034783;28;20433;-78
2022/03/09 01:12:57;;;;;;;6.07;4.95;;;1.40;95.60;;;;;;5034351;28;20503;-78
2022/03/09 01:15:23;;;;;;;5.90;4.75;;;1.40;95.60;;;;;;5033525;28;20390;-77
2022/03/09 01:17:49;;;;;;;7.22;4.80;;;1.40;95.70;;;;;;5034266;28;20094;-78
2022/03/09 01:20:14;;;;;;;6.82;5.30;;;1.40;95.60;;;;;;5033870;28;20054;-78
2022/03/09 01:22:40;;;;;;;6.82;5.05;;;1.40;95.90;;;;;;5000434;28;20053;-78
2022/03/09 01:25:06;;;;;;;6.97;4.95;;;1.30;96.10;;;;;;5016640;28;20139;-77
2022/03/09 01:27:32;;;;;;;6.28;4.95;;;1.30;96.50;;;;;;5016628;28;20081;-77
2022/03/09 01:29:57;;;;;;;8.05;5.68;;;1.30;96.60;;;;;;5000116;28;20052;-77
2022/03/09 01:32:23;;;;;;;7.82;5.18;;;1.30;96.70;;;;;;5034195;28;20051;-76
2022/03/09 01:34:49;;;;;;;6.93;5.25;;;1.30;96.60;;;;;;5017053;28;20050;-75
2022/03/09 01:37:15;;;;;;;8.50;5.32;;;1.30;96.80;;;;;;5034678;28;20397;-75
2022/03/09 01:39:40;;;;;;;7.22;5.32;;;1.30;96.70;;;;;;5036116;28;20128;-75
2022/03/09 01:42:06;;;;;;;7.50;5.72;;;1.30;96.80;;;;;;5018228;28;20053;-75
2022/03/09 01:44:32;;;;;;;8.00;5.45;;;1.30;96.90;;;;;;5034977;28;20099;-77
2022/03/09 01:46:57;;;;;;;6.97;5.68;;;1.40;97.00;;;;;;5015953;28;20045;-77
2022/03/09 01:49:23;;;;;;;7.63;5.32;;;1.30;97.00;;;;;;5034059;28;20064;-77
2022/03/09 01:51:50;;;;;;;7.72;5.70;;;1.20;97.10;;;;;;4998269;28;20130;-77
2022/03/09 01:54:16;;;;;;;6.90;5.32;;;1.30;97.30;;;;;;5026136;28;20054;-77
2022/03/09 01:56:42;;;;;;;8.20;6.05;;;1.20;97.10;;;;;;5013985;28;20099;-77
2022/03/09 01:59:09;;;;;;;7.53;5.82;;;1.20;97.30;;;;;;5027161;28;20129;-77
2022/03/09 02:01:34;;;;;;;7.57;5.38;;;1.30;97.60;;;;;;4999817;28;20110;-77
2022/03/09 02:04:01;;;;;;;7.43;6.00;;;1.20;98.00;;;;;;5015653;28;20132;-77
2022/03/09 02:06:27;;;;;;;7.85;5.85;;;1.20;97.80;;;;;;5016085;28;20053;-77
2022/03/09 02:11:37;;;;;;;7.13;5.65;;;1.10;97.90;;;;;;5017414;28;20410;-78
2022/03/09 02:14:03;;;;;;;7.78;6.28;;;1.10;98.00;;;;;;4995907;28;20057;-77
2022/03/09 02:16:29;;;;;;;7.90;5.85;;;1.10;97.90;;;;;;4979773;28;20494;-77
2022/03/09 02:18:54;;;;;;;7.70;6.03;;;1.10;98.00;;;;;;5013676;28;20049;-77
2022/03/09 02:21:20;;;;;;;7.25;5.93;;;1.10;98.00;;;;;;4980893;28;20094;-77
2022/03/09 02:23:46;;;;;;;9.70;6.05;;;1.20;98.10;;;;;;4983419;28;20366;-77
2022/03/09 02:26:12;;;;;;;8.45;6.07;;;1.10;98.00;;;;;;5015270;28;20099;-77
2022/03/09 02:28:38;;;;;;;8.68;6.05;;;1.20;98.10;;;;;;5032072;28;20041;-77
2022/03/09 02:31:04;;;;;;;7.97;6.10;;;1.10;98.00;;;;;;5015423;28;20437;-77
2022/03/09 02:33:30;;;;;;;10.18;6.03;;;1.00;97.80;;;;;;5033133;28;20042;-77
2022/03/09 02:35:55;;;;;;;8.23;6.15;;;1.10;97.90;;;;;;5033174;28;20045;-77
2022/03/09 02:38:21;;;;;;;7.95;6.10;;;1.10;98.00;;;;;;5032944;28;20111;-77
2022/03/09 02:40:46;;;;;;;7.13;5.65;;;1.10;97.90;;;;;;5033075;28;20137;-77
2022/03/09 02:43:12;;;;;;;8.52;6.03;;;1.00;97.90;;;;;;5032729;28;20060;-77
2022/03/09 02:45:38;;;;;;;8.35;5.93;;;1.00;98.00;;;;;;5032994;28;20552;-77
2022/03/09 02:48:04;;;;;;;9.40;6.35;;;1.00;98.50;;;;;;5014988;28;20071;-78
2022/03/09 02:50:29;;;;;;;8.32;6.35;;;1.00;98.20;;;;;;5033004;28;20183;-77
2022/03/09 02:52:55;;;;;;;11.02;6.30;;;1.00;98.20;;;;;;5032872;28;20576;-78
2022/03/09 02:55:20;;;;;;;8.38;6.28;;;1.00;98.40;;;;;;5032461;28;20521;-78
2022/03/09 02:57:46;;;;;;;7.55;6.22;;;0.90;98.60;;;;;;5013486;28;20042;-78
2022/03/09 03:00:12;;;;;;;9.35;6.10;;;0.90;98.90;;;;;;5014669;28;20042;-78
2022/03/09 03:02:38;;;;;;;7.88;6.30;;;0.90;99.30;;;;;;5015177;28;20408;-78
2022/03/09 03:05:05;;;;;;;10.15;6.53;;;0.90;99.00;;;;;;5032851;28;20041;-78
2022/03/09 03:07:31;;;;;;;8.98;6.68;;;0.80;99.10;;;;;;5033135;28;20041;-77
2022/03/09 03:09:57;;;;;;;8.10;6.28;;;0.80;99.10;;;;;;5036946;28;20045;-76
2022/03/09 03:12:22;;;;;;;7.97;6.45;;;0.80;99.30;;;;;;5037704;28;20081;-76
2022/03/09 03:14:48;;;;;;;7.38;6.05;;;0.70;99.60;;;;;;5035004;28;20053;-76
2022/03/09 03:17:13;;;;;;;8.40;6.50;;;0.70;99.60;;;;;;4995607;28;20054;-77
2022/03/09 03:19:39;;;;;;;8.95;6.75;;;0.70;99.80;;;;;;5012853;28;20057;-77
2022/03/09 03:22:05;;;;;;;9.65;6.45;;;0.60;99.90;;;;;;4995480;28;20510;-77
2022/03/09 03:24:30;;;;;;;9.68;6.22;;;0.60;99.90;;;;;;5012506;28;20073;-77
2022/03/09 03:26:56;;;;;;;8.80;6.18;;;0.60;99.90;;;;;;4988366;28;20049;-77
2022/03/09 03:29:22;;;;;;;8.77;6.40;;;0.60;99.90;;;;;;5016205;28;20045;-77
2022/03/09 03:31:47;;;;;;;10.48;6.47;;;0.60;99.90;;;;;;5019219;28;20049;-77
2022/03/09 03:34:13;;;;;;;10.32;6.70;;;0.50;99.90;;;;;;5035668;28;20045;-77
2022/03/09 03:36:39;;;;;;;9.65;6.47;;;0.50;99.90;;;;;;5018811;28;20127;-77
2022/03/09 03:39:04;;;;;;;9.38;6.60;;;0.50;99.90;;;;;;5036508;28;20042;-77
2022/03/09 03:41:30;;;;;;;9.05;6.88;;;0.50;99.90;;;;;;5002199;28;20049;-77
2022/03/09 03:43:56;;;;;;;8.85;6.47;;;0.50;99.90;;;;;;5036402;28;20048;-77
2022/03/09 03:46:21;;;;;;;9.77;7.15;;;0.50;99.90;;;;;;5018251;28;20051;-77
2022/03/09 03:48:47;;;;;;;9.80;7.00;;;0.50;99.90;;;;;;5018562;28;20128;-77
2022/03/09 03:51:12;;;;;;;8.00;6.40;;;0.40;99.90;;;;;;5036135;28;20132;-78
2022/03/09 03:53:38;;;;;;;13.60;7.70;;;0.40;99.90;;;;;;5018490;28;20458;-77
2022/03/09 03:56:04;;;;;;;10.93;7.00;;;0.40;99.90;;;;;;5018640;28;20478;-78
2022/03/09 03:58:30;;;;;;;10.73;7.43;;;0.40;99.90;;;;;;5035710;28;20523;-77
2022/03/09 04:00:56;;;;;;;8.65;7.07;;;0.50;99.90;;;;;;5036402;28;20037;-77
2022/03/09 04:03:21;;;;;;;8.57;6.82;;;0.40;99.90;;;;;;5035616;28;20125;-77
2022/03/09 04:05:47;;;;;;;9.52;7.30;;;0.40;99.90;;;;;;5035941;28;20084;-77
2022/03/09 04:08:13;;;;;;;8.98;7.00;;;0.40;99.90;;;;;;5035748;28;20045;-77
2022/03/09 04:10:38;;;;;;;10.52;7.55;;;0.40;99.90;;;;;;5035611;28;20041;-77
2022/03/09 04:13:04;;;;;;;9.52;7.07;;;0.50;99.90;;;;;;5035805;28;20041;-78
2022/03/09 04:15:33;;;;;;;9.80;6.95;;;0.50;99.90;;;;;;5035359;28;20517;-78
2022/03/09 04:17:58;;;;;;;10.02;7.22;;;0.50;99.90;;;;;;5018162;28;20056;-78
2022/03/09 04:20:24;;;;;;;11.63;7.35;;;0.50;99.90;;;;;;5014166;28;20390;-78
2022/03/09 04:22:50;;;;;;;9.93;7.15;;;0.50;99.90;;;;;;5015915;28;20053;-78
2022/03/09 04:25:16;;;;;;;9.57;6.95;;;0.50;99.90;;;;;;5030733;28;20430;-79
2022/03/09 04:27:42;;;;;;;8.38;6.88;;;0.50;99.90;;;;;;5014716;28;20042;-77
2022/03/09 04:30:08;;;;;;;9.40;7.70;;;0.50;99.90;;;;;;5015910;28;20053;-78
2022/03/09 04:32:34;;;;;;;10.63;7.80;;;0.40;99.90;;;;;;5015375;28;20089;-77
2022/03/09 04:35:01;;;;;;;13.52;7.57;;;0.40;99.90;;;;;;5015699;28;20077;-76
2022/03/09 04:37:30;;;;;;;9.98;7.15;;;0.40;99.90;;;;;;5016105;28;20398;-75
2022/03/09 04:39:59;;;;;;;10.40;7.25;;;0.40;99.90;;;;;;5017565;28;20056;-75
2022/03/09 04:42:26;;;;;;;9.88;7.53;;;0.40;99.90;;;;;;5018002;28;20057;-76
2022/03/09 04:44:52;;;;;;;11.52;7.95;;;0.40;99.90;;;;;;4998555;28;20057;-76
2022/03/09 04:47:17;;;;;;;11.18;7.85;;;0.40;99.90;;;;;;5015408;28;20057;-77
2022/03/09 04:49:43;;;;;;;10.25;7.03;;;0.30;99.90;;;;;;5015084;28;20060;-77
2022/03/09 04:52:09;;;;;;;11.18;7.28;;;0.30;99.90;;;;;;5030919;28;20046;-77
2022/03/09 04:54:34;;;;;;;9.55;7.63;;;0.30;99.90;;;;;;5013977;28;20048;-77
2022/03/09 04:57:00;;;;;;;8.82;7.53;;;0.30;99.90;;;;;;5014405;28;20406;-77
2022/03/09 04:59:26;;;;;;;10.88;6.97;;;0.20;99.90;;;;;;5013789;28;20038;-77
2022/03/09 05:01:51;;;;;;;13.75;7.90;;;0.20;99.90;;;;;;5014272;28;20053;-76
2022/03/09 05:04:17;;;;;;;12.07;7.93;;;0.20;99.90;;;;;;5014267;28;20137;-77
2022/03/09 05:06:42;;;;;;;11.00;7.45;;;0.20;99.90;;;;;;5014314;28;20406;-76
2022/03/09 05:09:08;;;;;;;10.93;7.82;;;0.20;99.90;;;;;;5015151;28;20046;-77
2022/03/09 05:11:34;;;;;;;12.75;7.78;;;0.20;99.90;;;;;;5014639;28;20042;-77
2022/03/09 05:13:59;;;;;;;9.90;7.78;;;0.10;99.90;;;;;;5013855;28;20486;-76
2022/03/09 05:16:25;;;;;;;10.05;7.70;;;0.20;99.90;;;;;;5014805;28;20085;-77
2022/03/09 05:18:50;;;;;;;10.93;7.88;;;0.20;99.90;;;;;;5014916;28;20080;-76
2022/03/09 05:21:16;;;;;;;11.07;8.23;;;0.20;99.90;;;;;;5031355;28;20108;-77
2022/03/09 05:23:42;;;;;;;10.05;7.88;;;0.20;99.90;;;;;;5016702;28;20049;-77
2022/03/09 05:26:08;;;;;;;11.07;8.65;;;0.20;99.90;;;;;;5032543;28;20052;-77
2022/03/09 05:28:34;;;;;;;13.27;7.85;;;0.20;99.90;;;;;;4979107;28;20050;-77
2022/03/09 05:30:59;;;;;;;13.15;8.02;;;0.20;99.90;;;;;;4997435;28;20053;-77
2022/03/09 05:33:25;;;;;;;9.85;7.93;;;0.20;99.90;;;;;;5006109;28;20090;-78
2022/03/09 05:35:51;;;;;;;10.13;7.75;;;0.20;99.90;;;;;;5016622;28;20126;-75
2022/03/09 05:38:16;;;;;;;11.05;8.27;;;0.10;99.90;;;;;;5034334;28;20077;-76
2022/03/09 05:40:42;;;;;;;10.68;7.90;;;0.10;99.90;;;;;;5015842;28;20128;-76
2022/03/09 05:43:07;;;;;;;11.93;8.27;;;0.10;99.90;;;;;;5034116;28;20132;-78
2022/03/09 05:45:33;;;;;;;12.07;8.40;;;0.10;99.90;;;;;;5009796;28;20053;-79
2022/03/09 05:47:59;;;;;;;9.55;7.60;;;0.10;99.90;;;;;;5016556;28;20053;-78
2022/03/09 05:50:24;;;;;;;11.75;7.40;;;0.10;99.90;;;;;;5033944;28;20390;-78
2022/03/09 05:52:50;;;;;;;12.40;8.40;;;0.10;99.90;;;;;;5015170;28;20473;-80
2022/03/09 05:55:16;;;;;;;10.55;8.00;;;0.10;99.90;;;;;;5034001;28;20389;-77
2022/03/09 05:57:41;;;;;;;10.00;8.02;;;0.10;99.90;;;;;;5015761;28;20208;-79
2022/03/09 06:00:08;;;;;;;11.32;7.85;;;0.00;99.90;;;;;;5000221;28;20131;-78
2022/03/09 06:02:34;;;;;;;11.43;8.10;;;0.10;99.90;;;;;;4999636;28;20065;-77
2022/03/09 06:04:59;;;;;;;11.95;8.18;;;0.10;99.90;;;;;;5036170;28;20049;-75
2022/03/09 06:07:25;;;;;;;11.27;7.95;;;0.00;99.90;;;;;;5036727;28;20041;-76
2022/03/09 06:09:50;;;;;;;11.57;8.02;;;0.00;99.90;;;;;;5021096;28;20121;-77
2022/03/09 06:12:16;;;;;;;10.57;8.15;;;0.00;99.90;;;;;;5035829;28;20478;-78
2022/03/09 06:14:42;;;;;;;12.77;7.70;;;0.00;99.90;;;;;;4999448;28;20038;-78
2022/03/09 06:17:08;;;;;;;13.65;8.10;;;0.00;99.90;;;;;;5016237;28;20049;-78
2022/03/09 06:19:33;;;;;;;10.50;8.20;;;0.10;99.90;;;;;;5030588;28;20049;-80
2022/03/09 06:21:59;;;;;;;10.73;7.95;;;0.10;99.90;;;;;;5032085;28;20485;-78
2022/03/09 06:24:25;;;;;;;8.80;7.22;;;0.10;99.90;;;;;;5014395;28;20378;-79
2022/03/09 06:26:50;;;;;;;11.60;8.50;;;0.10;99.90;;;;;;5032935;28;20512;-78
2022/03/09 06:29:16;;;;;;;14.10;8.70;;;0.10;99.90;;;;;;5031886;28;20410;-78
2022/03/09 06:31:44;;;;;;;14.20;8.52;;;0.10;99.90;;;;;;5015358;28;20041;-78
2022/03/09 06:34:11;;;;;;;10.55;7.78;;;0.30;99.90;;;;;;5032036;28;20041;-78
2022/03/09 06:36:36;;;;;;;11.23;8.27;;;0.20;99.90;;;;;;5032757;28;20050;-78
2022/03/09 06:39:03;;;;;;;9.45;7.63;;;0.30;99.90;;;;;;5033425;28;20064;-78
2022/03/09 06:41:28;;;;;;;11.88;8.07;;;0.20;99.90;;;;;;4999139;28;20051;-78
2022/03/09 06:43:54;;;;;;;11.00;8.43;;;0.20;99.90;;;;;;5032598;28;20246;-77
2022/03/09 06:46:19;;;;;;;14.50;8.02;;;0.20;99.90;;;;;;5032136;28;20056;-78
2022/03/09 06:48:45;;;;;;;10.35;7.72;;;0.30;99.90;;;;;;5031640;28;20144;-78
2022/03/09 06:51:11;;;;;;;14.57;7.75;;;0.50;99.90;;;;;;5033188;28;20056;-78
2022/03/09 06:53:36;;;;;;;12.95;8.27;;;0.60;99.90;;;;;;5032529;28;20053;-79
2022/03/09 06:56:02;;;;;;;11.73;7.75;;;0.80;99.90;;;;;;5032830;28;20060;-78
2022/03/09 06:58:28;;;;;;;10.40;8.10;;;0.90;99.90;;;;;;5015328;28;20053;-78
2022/03/09 07:00:55;;;;;;;9.48;7.93;;;1.00;99.90;;;;;;5032443;28;20133;-78
2022/03/09 07:03:21;;;;;;;10.98;7.55;;;1.10;99.90;;;;;;5032012;28;20046;-78
2022/03/09 07:05:46;;;;;;;10.63;8.18;;;1.10;99.90;;;;;;5032232;28;20049;-78
2022/03/09 07:08:12;;;;;;;11.07;7.65;;;1.10;99.90;;;;;;5032013;28;20046;-78
2022/03/09 07:10:38;;;;;;;11.85;7.47;;;1.20;99.90;;;;;;5032734;28;20056;-78
2022/03/09 07:13:03;;;;;;;11.00;8.02;;;1.30;99.90;;;;;;5032651;28;20270;-78
2022/03/09 07:15:29;;;;;;;10.27;7.45;;;1.40;99.60;;;;;;5015271;28;20045;-78
2022/03/09 07:17:55;;;;;;;11.27;7.65;;;1.50;99.20;;;;;;5032310;28;20053;-78
2022/03/09 07:20:20;;;;;;;11.02;7.55;;;1.70;98.90;;;;;;5032495;28;20095;-78
2022/03/09 07:22:46;;;;;;;12.27;8.10;;;1.70;98.90;;;;;;5031257;28;20115;-78
2022/03/09 07:25:12;;;;;;;9.27;7.38;;;1.70;98.50;;;;;;5015226;28;20042;-78
2022/03/09 07:27:38;;;;;;;10.05;7.70;;;1.70;98.40;;;;;;5031541;28;20477;-78
2022/03/09 07:30:04;;;;;;;10.45;7.07;;;1.70;98.20;;;;;;5014620;28;20137;-78
2022/03/09 07:32:30;;;;;;;9.77;7.22;;;1.80;98.20;;;;;;4998826;28;20394;-78
2022/03/09 07:34:55;;;;;;;11.23;7.82;;;1.80;98.20;;;;;;5030959;28;20050;-78
2022/03/09 07:37:21;;;;;;;12.15;7.70;;;1.80;98.10;;;;;;5032472;28;20053;-78
2022/03/09 07:39:47;;;;;;;12.18;7.90;;;1.80;98.20;;;;;;5014562;28;20046;-77
2022/03/09 07:42:12;;;;;;;10.75;7.95;;;1.80;98.30;;;;;;5032725;28;20041;-77
2022/03/09 07:44:38;;;;;;;10.30;7.43;;;1.90;98.20;;;;;;5032993;28;20088;-76
2022/03/09 07:47:04;;;;;;;9.75;7.63;;;1.90;97.90;;;;;;5031640;28;20056;-76
2022/03/09 07:49:33;;;;;;;11.05;7.05;;;2.00;97.90;;;;;;5032555;28;20049;-76
2022/03/09 07:52:02;;;;;;;11.30;7.20;;;2.10;97.80;;;;;;5014530;28;20057;-77
2022/03/09 07:54:28;;;;;;;9.88;7.60;;;2.10;97.50;;;;;;5014807;28;20414;-77
2022/03/09 07:56:54;;;;;;;10.65;7.85;;;2.20;97.30;;;;;;5031901;28;20124;-78
2022/03/09 07:59:20;;;;;;;11.30;8.13;;;2.40;97.40;;;;;;4998298;28;20608;-78
2022/03/09 08:01:46;;;;;;;12.50;8.45;;;2.30;97.10;;;;;;5013898;28;20124;-79
2022/03/09 08:04:11;;;;;;;11.00;7.55;;;2.40;97.20;;;;;;5014704;28;20041;-78
2022/03/09 08:06:37;;;;;;;12.05;7.78;;;2.40;97.20;;;;;;5031174;28;20050;-79
2022/03/09 08:09:04;;;;;;;13.65;7.57;;;2.50;97.20;;;;;;5014106;28;20057;-79
2022/03/09 08:11:30;;;;;;;11.50;7.50;;;2.50;96.80;;;;;;5032196;28;20406;-77
2022/03/09 08:13:57;;;;;;;10.32;7.72;;;2.60;96.30;;;;;;5031757;28;20046;-77
2022/03/09 08:16:22;;;;;;;9.32;7.13;;;2.70;96.40;;;;;;5001372;28;20057;-77
2022/03/09 08:18:48;;;;;;;9.82;7.70;;;2.90;95.40;;;;;;5035376;28;20046;-78
2022/03/09 08:21:14;;;;;;;9.57;7.13;;;2.90;95.20;;;;;;5034509;28;20061;-78
2022/03/09 08:23:39;;;;;;;11.32;7.50;;;2.90;94.80;;;;;;5035600;28;20045;-77
2022/03/09 08:26:05;;;;;;;9.52;7.88;;;3.00;94.30;;;;;;5035208;28;20049;-78
2022/03/09 08:28:31;;;;;;;9.82;7.72;;;3.20;94.30;;;;;;5001730;28;20046;-78
2022/03/09 08:30:56;;;;;;;9.45;7.43;;;3.20;94.60;;;;;;5001450;28;20045;-77
2022/03/09 08:33:22;;;;;;;13.40;8.32;;;3.20;93.90;;;;;;5035709;28;20052;-78
2022/03/09 08:35:48;;;;;;;10.25;7.95;;;3.40;93.20;;;;;;5017916;28;20053;-78
2022/03/09 08:38:14;;;;;;;9.25;7.18;;;3.40;92.70;;;;;;5035469;28;20058;-77
2022/03/09 08:40:40;;;;;;;10.98;7.80;;;3.50;92.70;;;;;;5017936;28;20095;-77
2022/03/09 08:43:06;;;;;;;11.55;7.47;;;3.60;92.40;;;;;;5034894;28;20045;-77
2022/03/09 08:45:31;;;;;;;11.73;8.80;;;3.60;91.80;;;;;;5017563;28;20045;-77
2022/03/09 08:47:57;;;;;;;10.35;7.88;;;3.70;91.80;;;;;;5034839;28;20049;-77
2022/03/09 08:50:23;;;;;;;14.95;7.88;;;3.70;91.70;;;;;;5035081;28;20052;-77
2022/03/09 08:52:48;;;;;;;11.10;7.40;;;3.80;91.20;;;;;;5017321;28;20041;-77
2022/03/09 08:55:14;;;;;;;10.13;7.05;;;3.90;90.70;;;;;;5033500;28;20049;-78
2022/03/09 08:57:40;;;;;;;10.30;7.32;;;4.00;89.30;;;;;;5034771;28;20041;-78
2022/03/09 09:00:06;;;;;;;11.18;7.43;;;4.10;88.70;;;;;;5034854;28;20088;-77
2022/03/09 09:02:32;;;;;;;10.82;7.28;;;4.20;88.00;;;;;;5017450;28;20057;-78
2022/03/09 09:04:58;;;;;;;11.18;7.82;;;4.20;88.20;;;;;;5034558;28;20406;-78
2022/03/09 09:07:23;;;;;;;13.07;7.20;;;4.20;88.20;;;;;;5034817;28;20045;-78
2022/03/09 09:09:49;;;;;;;9.00;6.95;;;4.30;86.10;;;;;;5034875;28;20045;-78
2022/03/09 09:12:15;;;;;;;9.82;7.15;;;4.40;84.80;;;;;;5016059;28;20140;-78
2022/03/09 09:14:41;;;;;;;9.93;6.75;;;4.50;83.00;;;;;;5016695;28;20379;-78
2022/03/09 09:17:07;;;;;;;9.82;8.10;;;4.60;83.00;;;;;;5016598;28;20041;-78
2022/03/09 09:19:33;;;;;;;11.32;7.95;;;4.70;82.30;;;;;;5017110;28;20405;-77
2022/03/09 09:22:00;;;;;;;10.65;7.90;;;4.80;81.20;;;;;;5034125;28;20382;-78
2022/03/09 09:24:25;;;;;;;14.02;7.63;;;5.00;80.40;;;;;;5016986;28;20045;-77
2022/03/09 09:26:51;;;;;;;12.30;7.53;;;5.00;80.10;;;;;;5033509;28;20049;-78
2022/03/09 09:29:17;;;;;;;11.48;7.75;;;5.10;81.10;;;;;;5033970;28;20517;-78
2022/03/09 09:31:42;;;;;;;10.63;7.85;;;5.10;80.20;;;;;;5036605;28;20049;-75
2022/03/09 09:34:08;;;;;;;10.55;7.45;;;5.10;81.20;;;;;;5035723;28;20153;-76
2022/03/09 09:36:35;;;;;;;11.38;7.38;;;5.20;80.00;;;;;;5037435;28;20494;-76
2022/03/09 09:39:01;;;;;;;10.60;7.50;;;5.30;78.90;;;;;;5036749;28;20049;-76
2022/03/09 09:41:27;;;;;;;10.70;8.07;;;5.40;77.40;;;;;;5036963;28;20052;-77
2022/03/09 09:43:53;;;;;;;10.18;7.85;;;5.50;76.90;;;;;;5034640;28;20052;-80
2022/03/09 09:46:19;;;;;;;10.52;7.07;;;5.60;76.40;;;;;;5033035;28;20057;-79
2022/03/09 09:48:45;;;;;;;9.43;7.90;;;5.70;74.70;;;;;;5034090;28;20041;-79
2022/03/09 09:51:12;;;;;;;9.48;7.47;;;5.70;74.60;;;;;;5015923;28;20572;-80
2022/03/09 09:53:41;;;;;;;11.60;7.40;;;5.90;75.10;;;;;;5016558;28;20379;-79
2022/03/09 09:56:07;;;;;;;11.02;7.50;;;6.00;72.30;;;;;;5033573;28;20091;-79
2022/03/09 09:58:33;;;;;;;11.80;7.10;;;6.10;70.40;;;;;;4999784;28;20081;-78
2022/03/09 10:00:58;;;;;;;12.63;7.97;;;6.10;71.50;;;;;;5016133;28;20055;-78
2022/03/09 10:03:24;;;;;;;13.35;7.47;;;6.20;71.10;;;;;;5032421;28;20495;-79
2022/03/09 10:05:50;;;;;;;13.05;7.30;;;6.30;69.90;;;;;;5016369;28;20045;-78
2022/03/09 10:08:17;;;;;;;10.55;7.68;;;6.40;69.50;;;;;;5016050;28;20049;-79
2022/03/09 10:10:45;;;;;;;15.07;8.02;;;6.40;68.80;;;;;;5000308;28;20053;-78
2022/03/09 10:13:19;;;;;;;10.50;7.38;;;6.40;68.10;;;;;;5015395;28;20038;-79
2022/03/09 10:15:49;;;;;;;10.70;7.60;;;6.40;66.50;;;;;;5015917;28;20477;-80
2022/03/09 10:18:21;;;;;;;14.00;8.63;;;6.50;66.80;;;;;;5015593;28;20045;-80
2022/03/09 10:20:48;;;;;;;10.80;7.75;;;6.50;68.90;;;;;;5015972;28;20061;-79
2022/03/09 10:23:15;;;;;;;9.60;7.43;;;6.50;68.10;;;;;;5015815;28;20045;-80
2022/03/09 10:25:40;;;;;;;11.05;7.78;;;6.70;67.10;;;;;;5016005;28;20058;-80
2022/03/09 10:28:08;;;;;;;12.90;8.80;;;6.70;68.00;;;;;;5015807;28;20054;-80
2022/03/09 10:30:35;;;;;;;10.77;7.78;;;6.80;67.70;;;;;;5015970;28;20053;-79
2022/03/09 10:33:11;;;;;;;11.25;8.65;;;6.80;68.70;;;;;;5015837;28;20095;-79
2022/03/09 10:35:46;;;;;;;10.52;7.90;;;6.80;68.00;;;;;;5000013;28;20501;-79
2022/03/09 10:38:19;;;;;;;10.68;8.38;;;6.90;68.00;;;;;;5015155;28;20100;-79
2022/03/09 10:40:53;;;;;;;10.60;8.20;;;7.00;67.40;;;;;;5033204;28;20103;-79
2022/03/09 10:43:24;;;;;;;13.27;8.57;;;7.10;67.20;;;;;;4999521;28;20071;-78
2022/03/09 10:46:07;;;;;;;9.68;8.10;;;7.10;67.80;;;;;;5033379;28;20128;-78
2022/03/09 10:48:55;;;;;;;10.52;8.45;;;7.30;65.70;;;;;;4999147;28;20450;-79
2022/03/09 10:51:33;;;;;;;13.55;8.20;;;7.40;65.70;;;;;;5032583;28;20045;-79
2022/03/09 10:54:06;;;;;;;12.23;8.82;;;7.50;64.80;;;;;;5033017;28;20041;-78
2022/03/09 10:56:32;;;;;;;8.93;7.70;;;7.50;66.00;;;;;;5015934;28;20049;-79
2022/03/09 10:59:28;;;;;;;10.52;7.72;;;7.60;64.20;;;;;;5015475;28;20076;-78
2022/03/09 11:02:07;;;;;;;9.38;7.63;;;7.80;61.70;;;;;;5032427;28;20111;-79
2022/03/09 11:04:33;;;;;;;11.48;8.63;;;7.90;61.80;;;;;;4998629;28;20590;-79
2022/03/09 11:06:59;;;;;;;9.70;8.02;;;7.90;63.10;;;;;;5015593;28;20111;-78
2022/03/09 11:09:25;;;;;;;9.50;7.32;;;7.90;63.60;;;;;;5032312;28;20048;-78
2022/03/09 11:11:50;;;;;;;9.30;7.78;;;8.10;62.10;;;;;;5032686;28;20049;-77
2022/03/09 11:14:20;;;;;;;10.15;8.15;;;8.10;61.50;;;;;;5014726;28;20033;-79
2022/03/09 11:16:46;;;;;;;8.65;7.75;;;8.20;61.70;;;;;;5031647;28;20041;-77
2022/03/09 11:19:13;;;;;;;9.30;7.75;;;8.30;61.70;;;;;;5032346;28;20049;-78
2022/03/09 11:21:39;;;;;;;11.90;7.88;;;8.30;62.00;;;;;;5015118;28;20544;-78
2022/03/09 11:24:11;;;;;;;11.52;7.78;;;8.40;61.00;;;;;;5015314;28;20089;-77
2022/03/09 11:26:45;;;;;;;9.23;7.82;;;8.50;59.30;;;;;;5015469;28;20052;-77
2022/03/09 11:29:12;;;;;;;13.43;8.18;;;8.60;59.60;;;;;;4999849;28;20056;-77
2022/03/09 11:31:45;;;;;;;9.73;7.50;;;8.70;59.10;;;;;;5032588;28;20053;-77
2022/03/09 11:34:42;;;;;;;8.85;7.80;;;8.80;59.10;;;;;;5034162;28;20049;-75
2022/03/09 11:37:15;;;;;;;8.82;7.82;;;8.90;59.10;;;;;;5034250;28;20171;-79
2022/03/09 11:39:42;;;;;;;9.63;7.70;;;8.90;59.50;;;;;;5016887;28;20081;-75
2022/03/09 11:42:20;;;;;;;11.55;8.55;;;9.00;59.60;;;;;;5034806;28;20063;-74
2022/03/09 11:44:49;;;;;;;9.60;8.43;;;9.10;60.60;;;;;;5032623;28;20092;-78
2022/03/09 11:47:15;;;;;;;9.95;8.55;;;9.10;60.10;;;;;;5015276;28;20056;-78
2022/03/09 11:49:49;;;;;;;11.23;7.70;;;9.20;60.70;;;;;;5015662;28;20545;-77
2022/03/09 11:52:25;;;;;;;10.75;8.30;;;9.30;59.70;;;;;;5036417;28;20064;-77
2022/03/09 11:54:55;;;;;;;11.18;8.30;;;9.30;60.00;;;;;;5035897;28;20517;-77
2022/03/09 11:57:24;;;;;;;11.50;7.93;;;9.40;59.60;;;;;;5001971;28;20489;-78
2022/03/09 11:59:59;;;;;;;11.48;8.07;;;9.40;59.70;;;;;;5036127;28;20046;-78
2022/03/09 12:02:41;;;;;;;11.98;7.88;;;9.50;56.10;;;;;;5035595;28;20135;-79
2022/03/09 12:05:28;;;;;;;11.20;8.07;;;9.70;56.90;;;;;;5019753;28;20128;-79
2022/03/09 12:08:14;;;;;;;10.48;7.95;;;9.70;57.50;;;;;;5036012;28;20050;-78
2022/03/09 12:10:52;;;;;;;10.25;8.38;;;9.80;55.80;;;;;;5001827;28;20076;-78
2022/03/09 12:13:22;;;;;;;9.05;7.57;;;9.90;56.50;;;;;;5018212;28;20053;-80
2022/03/09 12:16:14;;;;;;;11.38;8.20;;;10.00;55.70;;;;;;5035966;28;20045;-79
2022/03/09 12:18:44;;;;;;;11.27;8.75;;;10.10;51.40;;;;;;5035592;28;20075;-78
2022/03/09 12:21:11;;;;;;;10.80;8.40;;;10.10;54.20;;;;;;5017918;28;20060;-78
2022/03/09 12:24:08;;;;;;;11.43;8.20;;;10.10;54.70;;;;;;5017781;28;20143;-80
2022/03/09 12:26:40;;;;;;;10.30;8.45;;;10.20;54.80;;;;;;5017563;28;20401;-79
2022/03/09 12:29:26;;;;;;;10.93;8.55;;;10.20;54.60;;;;;;5018267;28;20107;-79
2022/03/09 12:32:05;;;;;;;10.93;8.63;;;10.20;52.70;;;;;;5021342;28;20116;-79
2022/03/09 12:34:35;;;;;;;10.68;8.65;;;10.40;53.00;;;;;;5035213;28;20056;-79
2022/03/09 12:37:02;;;;;;;9.32;8.40;;;10.40;54.20;;;;;;5035648;28;20401;-80
2022/03/09 12:39:28;;;;;;;9.90;8.38;;;10.40;53.60;;;;;;5035125;28;20064;-79
2022/03/09 12:41:54;;;;;;;11.57;9.00;;;10.40;53.70;;;;;;5035433;28;20482;-79
2022/03/09 12:44:23;;;;;;;11.60;8.95;;;10.40;53.40;;;;;;5017714;28;20062;-79
2022/03/09 12:46:51;;;;;;;11.27;9.30;;;10.60;52.20;;;;;;5035293;28;20045;-79
2022/03/09 12:49:20;;;;;;;10.15;8.82;;;10.70;52.30;;;;;;5017895;28;20107;-79
2022/03/09 12:51:50;;;;;;;9.80;8.43;;;10.80;51.90;;;;;;5017327;28;20037;-80